sensor_id;sensor_type;location;lat;lon;timestamp;temperature;humidity
13496;DHT22;6820;49.374;8.452;2022-08-05T00:02:28;29.84;81.20
13496;DHT22;6820;49.374;8.452;2022-08-05T00:06:30;29.69;81.39
13496;DHT22;6820;49.374;8.452;2022-08-05T00:10:36;29.57;81.78
13496;DHT22;6820;49.374;8.452;2022-08-05T00:14:37;29.41;83.30
13496;DHT22;6820;49.374;8.452;2022-08-05T00:18:40;29.12;85.27
13496;DHT22;6820;49.374;8.452;2022-08-05T00:22:44;28.89;86.63
13496;DHT22;6820;49.374;8.452;2022-08-05T00:26:58;28.80;87.37
13496;DHT22;6820;49.374;8.452;2022-08-05T00:31:05;28.73;87.86
13496;DHT22;6820;49.374;8.452;2022-08-05T00:35:08;28.70;88.25
13496;DHT22;6820;49.374;8.452;2022-08-05T00:39:09;28.62;88.65
13496;DHT22;6820;49.374;8.452;2022-08-05T00:43:14;28.65;88.98
13496;DHT22;6820;49.374;8.452;2022-08-05T00:47:17;28.64;89.18
13496;DHT22;6820;49.374;8.452;2022-08-05T00:51:19;28.64;89.38
13496;DHT22;6820;49.374;8.452;2022-08-05T00:55:41;28.64;89.78
13496;DHT22;6820;49.374;8.452;2022-08-05T00:59:44;28.60;90.27
13496;DHT22;6820;49.374;8.452;2022-08-05T01:03:45;28.52;90.56
13496;DHT22;6820;49.374;8.452;2022-08-05T01:07:50;28.50;90.86
13496;DHT22;6820;49.374;8.452;2022-08-05T01:12:12;28.48;91.25
13496;DHT22;6820;49.374;8.452;2022-08-05T01:16:33;28.42;91.85
13496;DHT22;6820;49.374;8.452;2022-08-05T01:20:59;28.33;92.38
13496;DHT22;6820;49.374;8.452;2022-08-05T01:29:44;28.35;92.58
13496;DHT22;6820;49.374;8.452;2022-08-05T01:33:51;28.39;92.68
13496;DHT22;6820;49.374;8.452;2022-08-05T01:38:00;28.42;92.49
13496;DHT22;6820;49.374;8.452;2022-08-05T01:42:04;28.46;92.29
13496;DHT22;6820;49.374;8.452;2022-08-05T01:46:10;28.50;92.14
13496;DHT22;6820;49.374;8.452;2022-08-05T01:50:35;28.50;92.14
13496;DHT22;6820;49.374;8.452;2022-08-05T01:54:56;28.45;92.14
13496;DHT22;6820;49.374;8.452;2022-08-05T01:59:04;28.46;91.85
13496;DHT22;6820;49.374;8.452;2022-08-05T02:03:13;28.54;91.75
13496;DHT22;6820;49.374;8.452;2022-08-05T02:07:32;28.57;91.65
13496;DHT22;6820;49.374;8.452;2022-08-05T02:11:46;28.52;91.65
13496;DHT22;6820;49.374;8.452;2022-08-05T02:15:54;28.48;91.94
13496;DHT22;6820;49.374;8.452;2022-08-05T02:20:03;28.45;92.14
13496;DHT22;6820;49.374;8.452;2022-08-05T02:24:12;28.43;92.44
13496;DHT22;6820;49.374;8.452;2022-08-05T02:28:24;28.42;92.78
13496;DHT22;6820;49.374;8.452;2022-08-05T02:32:34;28.43;92.88
13496;DHT22;6820;49.374;8.452;2022-08-05T02:36:41;28.32;93.27
13496;DHT22;6820;49.374;8.452;2022-08-05T02:40:49;28.20;93.77
13496;DHT22;6820;49.374;8.452;2022-08-05T02:44:53;28.25;93.41
13496;DHT22;6820;49.374;8.452;2022-08-05T02:48:56;28.21;93.47
13496;DHT22;6820;49.374;8.452;2022-08-05T02:52:58;28.24;93.57
13496;DHT22;6820;49.374;8.452;2022-08-05T02:57:00;28.32;93.47
13496;DHT22;6820;49.374;8.452;2022-08-05T03:01:05;28.30;93.47
13496;DHT22;6820;49.374;8.452;2022-08-05T03:05:11;28.21;94.16
13496;DHT22;6820;49.374;8.452;2022-08-05T03:09:15;28.17;94.36
13496;DHT22;6820;49.374;8.452;2022-08-05T03:13:33;28.05;94.90
13496;DHT22;6820;49.374;8.452;2022-08-05T03:17:54;28.06;95.00
13496;DHT22;6820;49.374;8.452;2022-08-05T03:21:59;28.03;95.39
13496;DHT22;6820;49.374;8.452;2022-08-05T03:26:01;28.02;95.39
13496;DHT22;6820;49.374;8.452;2022-08-05T03:30:23;27.99;95.49
13496;DHT22;6820;49.374;8.452;2022-08-05T03:34:34;27.86;95.98
13496;DHT22;6820;49.374;8.452;2022-08-05T03:38:40;27.74;96.72
13496;DHT22;6820;49.374;8.452;2022-08-05T03:42:52;27.76;97.52
13496;DHT22;6820;49.374;8.452;2022-08-05T03:46:55;27.76;99.99
13496;DHT22;6820;49.374;8.452;2022-08-05T03:51:01;27.68;99.99
13496;DHT22;6820;49.374;8.452;2022-08-05T03:55:36;27.62;99.99
13496;DHT22;6820;49.374;8.452;2022-08-05T04:00:04;27.59;99.99
13496;DHT22;6820;49.374;8.452;2022-08-05T04:04:14;27.43;99.99
13496;DHT22;6820;49.374;8.452;2022-08-05T04:08:21;27.12;99.99
13496;DHT22;6820;49.374;8.452;2022-08-05T04:12:36;26.88;99.99
13496;DHT22;6820;49.374;8.452;2022-08-05T04:16:37;26.76;98.89
13496;DHT22;6820;49.374;8.452;2022-08-05T04:20:39;26.57;99.48
13496;DHT22;6820;49.374;8.452;2022-08-05T04:24:44;26.49;99.63
13496;DHT22;6820;49.374;8.452;2022-08-05T04:28:53;26.35;99.99
13496;DHT22;6820;49.374;8.452;2022-08-05T04:32:54;26.24;99.88
13496;DHT22;6820;49.374;8.452;2022-08-05T04:36:56;26.12;99.73
13496;DHT22;6820;49.374;8.452;2022-08-05T04:40:58;25.98;99.99
13496;DHT22;6820;49.374;8.452;2022-08-05T04:45:03;26.06;99.99
13496;DHT22;6820;49.374;8.452;2022-08-05T04:49:06;26.12;99.99
13496;DHT22;6820;49.374;8.452;2022-08-05T04:53:15;26.29;99.99
13496;DHT22;6820;49.374;8.452;2022-08-05T04:57:18;26.28;99.99
13496;DHT22;6820;49.374;8.452;2022-08-05T05:01:20;26.23;99.99
13496;DHT22;6820;49.374;8.452;2022-08-05T05:05:42;26.24;99.99
13496;DHT22;6820;49.374;8.452;2022-08-05T05:10:03;26.24;99.99
13496;DHT22;6820;49.374;8.452;2022-08-05T05:14:06;26.32;99.99
13496;DHT22;6820;49.374;8.452;2022-08-05T05:18:16;26.44;99.78
13496;DHT22;6820;49.374;8.452;2022-08-05T05:22:33;26.60;99.98
13496;DHT22;6820;49.374;8.452;2022-08-05T05:26:41;26.76;99.73
13496;DHT22;6820;49.374;8.452;2022-08-05T05:30:46;26.87;99.58
13496;DHT22;6820;49.374;8.452;2022-08-05T05:34:50;26.97;99.19
13496;DHT22;6820;49.374;8.452;2022-08-05T05:38:52;27.08;98.59
13496;DHT22;6820;49.374;8.452;2022-08-05T05:42:54;27.21;98.05
13496;DHT22;6820;49.374;8.452;2022-08-05T05:46:56;27.23;97.45
13496;DHT22;6820;49.374;8.452;2022-08-05T05:51:04;27.24;97.31
13496;DHT22;6820;49.374;8.452;2022-08-05T05:55:16;27.24;97.51
13496;DHT22;6820;49.374;8.452;2022-08-05T05:59:18;27.21;96.72
13496;DHT22;6820;49.374;8.452;2022-08-05T06:03:20;27.13;96.86
13496;DHT22;6820;49.374;8.452;2022-08-05T06:07:42;27.12;96.77
13496;DHT22;6820;49.374;8.452;2022-08-05T06:12:02;27.06;96.86
13496;DHT22;6820;49.374;8.452;2022-08-05T06:16:04;27.09;96.86
13496;DHT22;6820;49.374;8.452;2022-08-05T06:20:26;27.13;96.67
13496;DHT22;6820;49.374;8.452;2022-08-05T06:24:29;27.20;96.17
13496;DHT22;6820;49.374;8.452;2022-08-05T06:28:31;27.24;96.07
13496;DHT22;6820;49.374;8.452;2022-08-05T06:32:32;27.31;94.84
13496;DHT22;6820;49.374;8.452;2022-08-05T06:36:34;27.40;95.14
13496;DHT22;6820;49.374;8.452;2022-08-05T06:40:56;27.58;95.14
13496;DHT22;6820;49.374;8.452;2022-08-05T06:44:59;27.72;94.20
13496;DHT22;6820;49.374;8.452;2022-08-05T06:49:08;27.90;93.46
13496;DHT22;6820;49.374;8.452;2022-08-05T06:53:12;28.09;92.18
13496;DHT22;6820;49.374;8.452;2022-08-05T06:57:28;28.21;91.54
13496;DHT22;6820;49.374;8.452;2022-08-05T07:01:50;28.32;90.61
13496;DHT22;6820;49.374;8.452;2022-08-05T07:05:53;28.46;90.91
13496;DHT22;6820;49.374;8.452;2022-08-05T07:09:57;28.77;90.56
13496;DHT22;6820;49.374;8.452;2022-08-05T07:13:58;29.08;89.83
13496;DHT22;6820;49.374;8.452;2022-08-05T07:18:30;29.10;89.10
13496;DHT22;6820;49.374;8.452;2022-08-05T07:22:33;29.23;88.21
13496;DHT22;6820;49.374;8.452;2022-08-05T07:26:35;29.15;86.69
13496;DHT22;6820;49.374;8.452;2022-08-05T07:30:36;29.15;86.73
13496;DHT22;6820;49.374;8.452;2022-08-05T07:34:40;29.11;85.35
13496;DHT22;6820;49.374;8.452;2022-08-05T07:38:42;29.05;85.25
13496;DHT22;6820;49.374;8.452;2022-08-05T07:42:44;29.07;83.78
13496;DHT22;6820;49.374;8.452;2022-08-05T07:46:48;29.03;83.97
13496;DHT22;6820;49.374;8.452;2022-08-05T07:50:50;29.05;83.68
13496;DHT22;6820;49.374;8.452;2022-08-05T07:54:52;28.95;84.07
13496;DHT22;6820;49.374;8.452;2022-08-05T07:58:54;28.88;84.47
13496;DHT22;6820;49.374;8.452;2022-08-05T08:02:59;28.88;84.90
13496;DHT22;6820;49.374;8.452;2022-08-05T08:07:16;28.92;84.01
13496;DHT22;6820;49.374;8.452;2022-08-05T08:11:23;28.95;83.18
13496;DHT22;6820;49.374;8.452;2022-08-05T08:15:45;28.89;82.50
13496;DHT22;6820;49.374;8.452;2022-08-05T08:20:06;28.82;82.43
13496;DHT22;6820;49.374;8.452;2022-08-05T08:24:28;28.77;82.93
13496;DHT22;6820;49.374;8.452;2022-08-05T08:28:50;28.80;83.42
13496;DHT22;6820;49.374;8.452;2022-08-05T08:33:09;28.74;82.83
13496;DHT22;6820;49.374;8.452;2022-08-05T08:37:15;28.77;83.22
13496;DHT22;6820;49.374;8.452;2022-08-05T08:41:19;28.89;85.39
13496;DHT22;6820;49.374;8.452;2022-08-05T08:45:26;29.10;84.11
13496;DHT22;6820;49.374;8.452;2022-08-05T08:49:33;29.33;82.69
13496;DHT22;6820;49.374;8.452;2022-08-05T08:53:56;29.44;82.85
13496;DHT22;6820;49.374;8.452;2022-08-05T08:58:01;29.55;85.37
13496;DHT22;6820;49.374;8.452;2022-08-05T09:02:04;29.70;82.90
13496;DHT22;6820;49.374;8.452;2022-08-05T09:06:09;29.97;82.08
13496;DHT22;6820;49.374;8.452;2022-08-05T09:10:13;30.10;79.88
13496;DHT22;6820;49.374;8.452;2022-08-05T09:14:18;29.94;79.48
13496;DHT22;6820;49.374;8.452;2022-08-05T09:18:41;30.04;81.15
13496;DHT22;6820;49.374;8.452;2022-08-05T09:27:09;29.89;82.43
13496;DHT22;6820;49.374;8.452;2022-08-05T09:32:01;29.97;83.16
13496;DHT22;6820;49.374;8.452;2022-08-05T09:36:36;30.03;81.05
13496;DHT22;6820;49.374;8.452;2022-08-05T09:41:05;29.88;80.66
13496;DHT22;6820;49.374;8.452;2022-08-05T09:45:09;29.71;80.90
13496;DHT22;6820;49.374;8.452;2022-08-05T09:49:31;29.78;81.20
13496;DHT22;6820;49.374;8.452;2022-08-05T09:53:52;29.86;80.31
13496;DHT22;6820;49.374;8.452;2022-08-05T09:58:08;30.00;80.31
13496;DHT22;6820;49.374;8.452;2022-08-05T10:02:28;30.10;79.78
13496;DHT22;6820;49.374;8.452;2022-08-05T10:06:32;30.26;79.48
13496;DHT22;6820;49.374;8.452;2022-08-05T10:10:38;30.25;80.33
13496;DHT22;6820;49.374;8.452;2022-08-05T10:14:50;30.25;80.72
13496;DHT22;6820;49.374;8.452;2022-08-05T10:18:54;30.25;80.82
13496;DHT22;6820;49.374;8.452;2022-08-05T10:22:57;30.44;82.00
13496;DHT22;6820;49.374;8.452;2022-08-05T10:26:59;30.44;80.98
13496;DHT22;6820;49.374;8.452;2022-08-05T10:31:02;30.66;80.88
13496;DHT22;6820;49.374;8.452;2022-08-05T10:35:24;30.85;80.15
13496;DHT22;6820;49.374;8.452;2022-08-05T10:39:34;30.91;79.86
13496;DHT22;6820;49.374;8.452;2022-08-05T10:44:04;30.98;80.21
13496;DHT22;6820;49.374;8.452;2022-08-05T10:52:59;31.23;78.89
13496;DHT22;6820;49.374;8.452;2022-08-05T10:57:02;31.35;79.29
13496;DHT22;6820;49.374;8.452;2022-08-05T11:01:04;31.28;79.29
13496;DHT22;6820;49.374;8.452;2022-08-05T11:05:08;31.19;80.36
13496;DHT22;6820;49.374;8.452;2022-08-05T11:09:17;31.13;81.65
13496;DHT22;6820;49.374;8.452;2022-08-05T11:13:40;31.10;81.54
13496;DHT22;6820;49.374;8.452;2022-08-05T11:18:12;31.15;81.49
13496;DHT22;6820;49.374;8.452;2022-08-05T11:22:39;30.94;81.84
13496;DHT22;6820;49.374;8.452;2022-08-05T11:26:51;31.03;82.67
13496;DHT22;6820;49.374;8.452;2022-08-05T11:31:50;31.12;82.28
13496;DHT22;6820;49.374;8.452;2022-08-05T11:36:37;31.07;82.82
13496;DHT22;6820;49.374;8.452;2022-08-05T11:40:56;31.10;83.06
13496;DHT22;6820;49.374;8.452;2022-08-05T11:45:14;31.19;83.35
13496;DHT22;6820;49.374;8.452;2022-08-05T11:49:36;31.27;82.82
13496;DHT22;6820;49.374;8.452;2022-08-05T11:53:43;31.35;83.31
13496;DHT22;6820;49.374;8.452;2022-08-05T11:57:48;31.30;82.72
13496;DHT22;6820;49.374;8.452;2022-08-05T12:02:11;31.27;84.20
13496;DHT22;6820;49.374;8.452;2022-08-05T12:06:32;30.90;85.86
13496;DHT22;6820;49.374;8.452;2022-08-05T12:10:35;30.91;85.61
13496;DHT22;6820;49.374;8.452;2022-08-05T12:14:46;30.94;85.61
13496;DHT22;6820;49.374;8.452;2022-08-05T12:18:48;30.91;84.14
13496;DHT22;6820;49.374;8.452;2022-08-05T12:23:06;31.12;84.53
13496;DHT22;6820;49.374;8.452;2022-08-05T12:27:09;31.25;83.70
13496;DHT22;6820;49.374;8.452;2022-08-05T12:31:25;31.18;84.09
13496;DHT22;6820;49.374;8.452;2022-08-05T12:35:45;31.18;84.30
13496;DHT22;6820;49.374;8.452;2022-08-05T12:39:48;31.20;84.49
13496;DHT22;6820;49.374;8.452;2022-08-05T12:43:56;31.41;84.30
13496;DHT22;6820;49.374;8.452;2022-08-05T12:48:15;31.45;84.35
13496;DHT22;6820;49.374;8.452;2022-08-05T12:52:28;31.35;84.35
13496;DHT22;6820;49.374;8.452;2022-08-05T12:56:45;31.03;84.98
13496;DHT22;6820;49.374;8.452;2022-08-05T13:00:51;30.88;85.12
13496;DHT22;6820;49.374;8.452;2022-08-05T13:05:12;30.56;85.81
13496;DHT22;6820;49.374;8.452;2022-08-05T13:09:15;30.40;85.69
13496;DHT22;6820;49.374;8.452;2022-08-05T13:13:28;30.19;85.99
13496;DHT22;6820;49.374;8.452;2022-08-05T13:17:53;30.22;87.11
13496;DHT22;6820;49.374;8.452;2022-08-05T13:21:59;30.26;87.11
13496;DHT22;6820;49.374;8.452;2022-08-05T13:26:03;30.38;86.22
13496;DHT22;6820;49.374;8.452;2022-08-05T13:30:10;30.54;86.43
13496;DHT22;6820;49.374;8.452;2022-08-05T13:34:35;30.86;86.19
13496;DHT22;6820;49.374;8.452;2022-08-05T13:38:41;31.10;85.85
13496;DHT22;6820;49.374;8.452;2022-08-05T13:42:43;31.25;83.55
13496;DHT22;6820;49.374;8.452;2022-08-05T13:46:46;31.12;84.39
13496;DHT22;6820;49.374;8.452;2022-08-05T13:51:08;31.37;84.30
13496;DHT22;6820;49.374;8.452;2022-08-05T13:55:13;31.38;84.16
13496;DHT22;6820;49.374;8.452;2022-08-05T13:59:35;31.78;82.78
13496;DHT22;6820;49.374;8.452;2022-08-05T14:03:57;31.78;82.25
13496;DHT22;6820;49.374;8.452;2022-08-05T14:08:18;31.38;82.15
13496;DHT22;6820;49.374;8.452;2022-08-05T14:12:32;31.75;82.39
13496;DHT22;6820;49.374;8.452;2022-08-05T14:16:34;31.71;82.93
13496;DHT22;6820;49.374;8.452;2022-08-05T14:20:36;31.94;82.15
13496;DHT22;6820;49.374;8.452;2022-08-05T14:24:38;32.12;82.21
13496;DHT22;6820;49.374;8.452;2022-08-05T14:28:40;32.28;81.29
13496;DHT22;6820;49.374;8.452;2022-08-05T14:32:52;32.17;81.59
13496;DHT22;6820;49.374;8.452;2022-08-05T14:36:54;32.34;81.29
13496;DHT22;6820;49.374;8.452;2022-08-05T14:40:55;32.31;80.99
13496;DHT22;6820;49.374;8.452;2022-08-05T14:44:57;31.84;82.46
13496;DHT22;6820;49.374;8.452;2022-08-05T14:49:00;31.60;82.84
13496;DHT22;6820;49.374;8.452;2022-08-05T14:53:07;31.79;82.59
13496;DHT22;6820;49.374;8.452;2022-08-05T14:57:09;31.65;82.84
13496;DHT22;6820;49.374;8.452;2022-08-05T15:01:14;31.47;82.93
13496;DHT22;6820;49.374;8.452;2022-08-05T15:05:22;31.20;82.88
13496;DHT22;6820;49.374;8.452;2022-08-05T15:09:29;30.93;84.09
13496;DHT22;6820;49.374;8.452;2022-08-05T15:13:51;30.76;83.94
13496;DHT22;6820;49.374;8.452;2022-08-05T15:17:53;30.94;83.98
13496;DHT22;6820;49.374;8.452;2022-08-05T15:21:54;30.56;86.89
13496;DHT22;6820;49.374;8.452;2022-08-05T15:26:00;30.13;87.95
13496;DHT22;6820;49.374;8.452;2022-08-05T15:30:03;29.57;89.61
